createdAt,value
2023-04-24T00:01:37.962Z,10.80
2023-04-24T00:04:07.339Z,10.80
2023-04-24T00:06:35.923Z,10.80
2023-04-24T00:09:04.552Z,10.80
2023-04-24T00:11:32.919Z,10.80
2023-04-24T00:14:02.472Z,10.80
2023-04-24T00:16:30.886Z,10.70
2023-04-24T00:18:59.232Z,10.80
2023-04-24T00:21:27.750Z,10.80
2023-04-24T00:23:56.029Z,10.80
2023-04-24T00:26:24.272Z,10.80
2023-04-24T00:28:52.641Z,10.70
2023-04-24T00:31:23.678Z,10.70
2023-04-24T00:33:51.975Z,10.80
2023-04-24T00:36:21.584Z,10.80
2023-04-24T00:38:49.852Z,10.90
2023-04-24T00:41:18.123Z,10.90
2023-04-24T00:43:46.736Z,10.90
2023-04-24T00:46:15.771Z,11.00
2023-04-24T00:48:46.081Z,10.90
2023-04-24T00:51:14.670Z,11.00
2023-04-24T00:53:42.950Z,11.00
2023-04-24T00:56:12.004Z,11.00
2023-04-24T00:58:40.851Z,11.00
2023-04-24T01:01:09.240Z,11.00
2023-04-24T01:03:39.085Z,11.00
2023-04-24T01:06:09.938Z,11.00
2023-04-24T01:08:38.922Z,11.00
2023-04-24T01:11:07.464Z,11.10
2023-04-24T01:13:36.790Z,11.00
2023-04-24T01:16:05.504Z,11.00
2023-04-24T01:18:36.193Z,11.00
2023-04-24T01:21:08.613Z,10.90
2023-04-24T01:23:38.382Z,10.90
2023-04-24T01:26:06.723Z,10.90
2023-04-24T01:28:35.196Z,10.80
2023-04-24T01:31:03.413Z,10.80
2023-04-24T01:33:32.153Z,10.80
2023-04-24T01:36:00.935Z,10.80
2023-04-24T01:38:29.573Z,10.90
2023-04-24T01:40:59.072Z,10.90
2023-04-24T01:43:27.519Z,10.90
2023-04-24T01:45:55.702Z,10.90
2023-04-24T01:48:24.877Z,10.90
2023-04-24T01:50:53.956Z,10.90
2023-04-24T01:53:22.379Z,10.90
2023-04-24T01:55:50.649Z,10.90
2023-04-24T01:58:20.401Z,10.90
2023-04-24T02:00:48.733Z,10.90
2023-04-24T02:03:17.187Z,10.90
2023-04-24T02:05:46.434Z,10.90
2023-04-24T02:08:14.776Z,11.00
2023-04-24T02:10:42.964Z,11.00
2023-04-24T02:13:11.426Z,11.00
2023-04-24T02:15:40.976Z,11.00
2023-04-24T02:18:09.441Z,10.90
2023-04-24T02:20:37.866Z,10.90
2023-04-24T02:23:06.176Z,10.80
2023-04-24T02:25:35.247Z,10.80
2023-04-24T02:28:03.858Z,10.70
2023-04-24T02:30:32.182Z,10.60
2023-04-24T02:33:01.875Z,10.60
2023-04-24T02:35:30.832Z,10.60
2023-04-24T02:37:59.226Z,10.60
2023-04-24T02:40:27.474Z,10.50
2023-04-24T02:42:55.765Z,10.50
2023-04-24T02:45:26.225Z,10.50
2023-04-24T02:47:55.855Z,10.50
2023-04-24T02:50:25.989Z,10.50
2023-04-24T02:52:54.308Z,10.50
2023-04-24T02:55:22.601Z,10.50
2023-04-24T02:57:51.004Z,10.40
2023-04-24T03:00:19.444Z,10.40
2023-04-24T03:02:47.987Z,10.40
2023-04-24T03:05:16.532Z,10.40
2023-04-24T03:07:46.512Z,10.30
2023-04-24T03:10:14.883Z,10.30
2023-04-24T03:12:43.703Z,10.40
2023-04-24T03:15:12.214Z,10.40
2023-04-24T03:17:41.013Z,10.30
2023-04-24T03:20:10.387Z,10.30
2023-04-24T03:22:39.702Z,10.30
2023-04-24T03:25:11.487Z,10.40
2023-04-24T03:27:40.386Z,10.40
2023-04-24T03:30:19.644Z,10.40
2023-04-24T03:32:53.554Z,10.50
2023-04-24T03:35:26.143Z,10.60
2023-04-24T03:37:56.058Z,10.60
2023-04-24T03:40:45.511Z,10.60
2023-04-24T03:43:29.269Z,10.60
2023-04-24T03:46:00.405Z,10.60
2023-04-24T03:48:29.529Z,10.60
2023-04-24T03:50:58.358Z,10.50
2023-04-24T03:53:27.502Z,10.60
2023-04-24T03:55:57.872Z,10.50
2023-04-24T03:58:26.691Z,10.50
2023-04-24T04:00:57.952Z,10.40
2023-04-24T04:03:46.294Z,10.40
2023-04-24T04:06:17.401Z,10.40
2023-04-24T04:08:46.152Z,10.40
2023-04-24T04:11:16.436Z,10.30
2023-04-24T04:13:48.747Z,10.30
2023-04-24T04:16:19.705Z,10.20
2023-04-24T04:18:50.387Z,10.10
2023-04-24T04:21:26.738Z,10.10
2023-04-24T04:24:06.370Z,10.00
2023-04-24T04:26:42.573Z,10.00
2023-04-24T04:29:18.493Z,9.90
2023-04-24T04:31:49.847Z,9.80
2023-04-24T04:34:21.145Z,9.80
2023-04-24T04:36:50.834Z,9.80
2023-04-24T04:39:32.851Z,9.70
2023-04-24T04:42:08.896Z,9.70
2023-04-24T04:44:42.236Z,9.60
2023-04-24T04:47:14.558Z,9.60
2023-04-24T04:49:44.366Z,9.50
2023-04-24T04:52:26.082Z,9.60
2023-04-24T04:55:00.070Z,9.50
2023-04-24T04:57:42.736Z,9.40
2023-04-24T05:00:12.921Z,9.40
2023-04-24T05:02:49.048Z,9.40
2023-04-24T05:05:18.023Z,9.30
2023-04-24T05:07:46.771Z,9.30
2023-04-24T05:10:15.287Z,9.30
2023-04-24T05:12:46.255Z,9.40
2023-04-24T05:15:14.896Z,9.60
2023-04-24T05:17:43.227Z,9.90
2023-04-24T05:20:12.947Z,10.30
2023-04-24T05:22:41.214Z,10.40
2023-04-24T05:25:10.181Z,10.70
2023-04-24T05:27:45.508Z,11.10
2023-04-24T05:30:17.392Z,11.30
2023-04-24T05:32:45.996Z,11.30
2023-04-24T05:35:15.368Z,11.30
2023-04-24T05:37:43.801Z,11.30
2023-04-24T05:40:14.275Z,11.40
2023-04-24T05:42:43.840Z,11.40
2023-04-24T05:45:17.356Z,11.40
2023-04-24T05:47:45.967Z,11.30
2023-04-24T05:50:14.617Z,11.10
2023-04-24T05:52:42.895Z,11.00
2023-04-24T05:55:24.408Z,10.90
2023-04-24T05:57:54.734Z,10.80
2023-04-24T06:00:23.321Z,10.80
2023-04-24T06:03:01.561Z,10.80
2023-04-24T06:05:31.092Z,10.70
2023-04-24T06:07:59.539Z,10.60
2023-04-24T06:10:32.823Z,10.50
2023-04-24T06:13:02.561Z,10.40
2023-04-24T06:15:33.298Z,10.30
2023-04-24T06:18:12.058Z,10.20
2023-04-24T06:20:41.305Z,10.20
2023-04-24T06:23:11.358Z,10.20
2023-04-24T06:25:40.238Z,10.10
2023-04-24T06:28:09.748Z,10.20
2023-04-24T06:30:38.266Z,10.20
2023-04-24T06:33:19.661Z,10.30
2023-04-24T06:35:49.669Z,10.40
2023-04-24T06:38:18.000Z,10.60
2023-04-24T06:40:46.400Z,10.60
2023-04-24T06:43:15.994Z,10.70
2023-04-24T06:45:46.518Z,10.70
2023-04-24T06:48:14.818Z,10.80
2023-04-24T06:50:43.206Z,10.90
2023-04-24T06:53:13.560Z,10.90
2023-04-24T06:55:42.102Z,11.00
2023-04-24T06:58:10.290Z,11.10
2023-04-24T07:00:40.168Z,11.20
2023-04-24T07:03:08.630Z,11.30
2023-04-24T07:05:38.094Z,11.50
2023-04-24T07:08:07.627Z,11.60
2023-04-24T07:10:37.052Z,11.50
2023-04-24T07:13:05.581Z,11.50
2023-04-24T07:15:33.899Z,11.40
2023-04-24T07:18:05.600Z,11.40
2023-04-24T07:20:35.205Z,11.50
2023-04-24T07:23:04.158Z,11.60
2023-04-24T07:25:32.721Z,11.80
2023-04-24T07:28:00.984Z,12.00
2023-04-24T07:30:30.350Z,12.10
2023-04-24T07:32:58.688Z,12.20
2023-04-24T07:35:28.834Z,12.30
2023-04-24T07:37:57.247Z,12.40
2023-04-24T07:40:25.704Z,12.50
2023-04-24T07:42:53.954Z,12.70
2023-04-24T07:45:24.089Z,12.70
2023-04-24T07:47:53.067Z,12.80
2023-04-24T07:50:21.758Z,13.00
2023-04-24T07:52:51.294Z,13.00
2023-04-24T07:55:22.535Z,12.90
2023-04-24T07:57:53.036Z,12.80
2023-04-24T08:00:21.974Z,12.90
2023-04-24T08:02:50.420Z,13.10
2023-04-24T08:05:19.315Z,13.40
2023-04-24T08:07:49.661Z,13.50
2023-04-24T08:10:19.396Z,13.60
2023-04-24T08:12:47.831Z,13.70
2023-04-24T08:15:16.126Z,13.90
2023-04-24T08:17:44.641Z,13.90
2023-04-24T08:20:14.530Z,13.70
2023-04-24T08:22:43.403Z,13.70
2023-04-24T08:25:12.369Z,13.90
2023-04-24T08:27:41.982Z,14.00
2023-04-24T08:30:10.995Z,14.00
2023-04-24T08:32:39.582Z,14.20
2023-04-24T08:35:10.030Z,14.30
2023-04-24T08:37:38.693Z,14.50
2023-04-24T08:40:13.851Z,14.60
2023-04-24T08:42:45.090Z,14.40
2023-04-24T08:45:14.588Z,14.00
2023-04-24T08:47:44.969Z,13.70
2023-04-24T08:50:13.694Z,13.30
2023-04-24T08:52:43.037Z,13.10
2023-04-24T08:55:11.868Z,12.90
2023-04-24T08:57:42.494Z,12.60
2023-04-24T09:00:13.536Z,12.50
2023-04-24T09:02:45.631Z,12.40
2023-04-24T09:05:15.980Z,12.40
2023-04-24T09:07:48.668Z,12.40
2023-04-24T09:10:17.527Z,12.40
2023-04-24T09:12:47.011Z,12.60
2023-04-24T09:15:16.894Z,12.80
2023-04-24T09:17:46.122Z,13.00
2023-04-24T09:20:14.549Z,13.10
2023-04-24T09:22:43.718Z,13.10
2023-04-24T09:25:13.526Z,13.10
2023-04-24T09:27:45.721Z,13.20
2023-04-24T09:30:16.286Z,13.00
2023-04-24T09:32:44.679Z,13.00
2023-04-24T09:35:14.645Z,12.90
2023-04-24T09:37:44.613Z,13.00
2023-04-24T09:40:18.758Z,13.00
2023-04-24T09:42:48.132Z,13.10
2023-04-24T09:45:18.246Z,13.10
2023-04-24T09:47:46.653Z,12.80
2023-04-24T09:50:17.092Z,12.60
2023-04-24T09:52:47.699Z,12.40
2023-04-24T09:55:19.443Z,12.30
2023-04-24T09:57:52.210Z,12.30
2023-04-24T10:00:24.324Z,12.30
2023-04-24T10:02:54.495Z,12.50
2023-04-24T10:05:26.872Z,12.60
2023-04-24T10:07:59.188Z,13.00
2023-04-24T10:10:28.656Z,13.40
2023-04-24T10:12:57.297Z,13.80
2023-04-24T10:15:28.842Z,14.30
2023-04-24T10:17:59.902Z,14.70
2023-04-24T10:20:31.516Z,15.10
2023-04-24T10:23:00.652Z,15.10
2023-04-24T10:25:31.204Z,14.80
2023-04-24T10:28:01.325Z,14.70
2023-04-24T10:30:35.741Z,15.20
2023-04-24T10:33:05.408Z,15.20
2023-04-24T10:35:36.798Z,14.80
2023-04-24T10:38:08.017Z,14.50
2023-04-24T10:40:37.908Z,14.80
2023-04-24T10:43:09.006Z,14.70
2023-04-24T10:45:39.381Z,14.50
2023-04-24T10:48:12.083Z,14.40
2023-04-24T10:50:48.572Z,14.20
2023-04-24T10:53:19.301Z,13.90
2023-04-24T10:55:49.506Z,13.70
2023-04-24T10:58:18.987Z,13.60
2023-04-24T11:00:59.039Z,13.40
2023-04-24T11:03:29.820Z,13.10
2023-04-24T11:06:00.652Z,12.90
2023-04-24T11:08:31.856Z,12.70
2023-04-24T11:11:02.692Z,12.50
2023-04-24T11:14:07.288Z,12.30
2023-04-24T11:16:40.796Z,11.80
2023-04-24T11:19:10.796Z,11.60
2023-04-24T11:21:44.152Z,11.50
2023-04-24T11:24:28.282Z,11.70
2023-04-24T11:26:57.693Z,12.20
2023-04-24T11:29:41.130Z,12.80
2023-04-24T11:32:21.248Z,13.70
2023-04-24T11:34:51.191Z,14.20
2023-04-24T11:37:19.820Z,14.40
2023-04-24T11:39:48.381Z,14.40
2023-04-24T11:42:17.580Z,14.10
2023-04-24T11:44:48.485Z,14.00
2023-04-24T11:47:18.148Z,14.10
2023-04-24T11:49:47.232Z,14.50
2023-04-24T11:52:18.850Z,14.90
2023-04-24T11:54:52.203Z,15.10
2023-04-24T11:57:23.205Z,15.20
2023-04-24T11:59:51.793Z,15.40
2023-04-24T12:02:24.816Z,15.30
2023-04-24T12:04:54.996Z,14.70
2023-04-24T12:07:24.049Z,14.40
2023-04-24T12:09:58.666Z,13.80
2023-04-24T12:12:29.367Z,13.70
2023-04-24T12:15:00.413Z,13.70
2023-04-24T12:17:32.701Z,13.50
2023-04-24T12:20:03.363Z,13.30
2023-04-24T12:22:46.438Z,13.20
2023-04-24T12:25:15.617Z,13.40
2023-04-24T12:27:44.184Z,13.90
2023-04-24T12:30:15.349Z,14.40
2023-04-24T12:32:46.102Z,14.60
2023-04-24T12:35:14.888Z,15.00
2023-04-24T12:37:47.219Z,15.10
2023-04-24T12:40:16.664Z,15.20
2023-04-24T12:42:47.540Z,14.20
2023-04-24T12:45:17.405Z,13.30
2023-04-24T12:47:48.241Z,12.60
2023-04-24T12:50:17.731Z,12.10
2023-04-24T12:52:46.544Z,11.70
2023-04-24T12:55:14.887Z,11.60
2023-04-24T12:57:43.269Z,11.60
2023-04-24T13:00:12.468Z,11.70
2023-04-24T13:02:40.899Z,11.90
2023-04-24T13:05:12.578Z,12.00
2023-04-24T13:07:40.999Z,12.10
2023-04-24T13:10:10.389Z,12.10
2023-04-24T13:12:39.746Z,12.20
2023-04-24T13:15:09.475Z,12.40
2023-04-24T13:17:37.741Z,12.80
2023-04-24T13:20:07.238Z,13.00
2023-04-24T13:22:38.299Z,13.10
2023-04-24T13:25:08.260Z,13.60
2023-04-24T13:27:36.674Z,14.10
2023-04-24T13:30:05.859Z,14.40
2023-04-24T13:32:36.383Z,14.70
2023-04-24T13:35:05.369Z,14.90
2023-04-24T13:37:34.313Z,14.90
2023-04-24T13:40:06.903Z,15.20
2023-04-24T13:42:35.429Z,15.20
2023-04-24T13:45:17.444Z,15.20
2023-04-24T13:47:53.489Z,15.00
2023-04-24T13:50:22.087Z,14.30
2023-04-24T13:52:50.390Z,13.70
2023-04-24T13:55:20.109Z,13.50
2023-04-24T13:57:48.448Z,13.10
2023-04-24T14:00:17.798Z,12.60
2023-04-24T14:02:46.264Z,12.30
2023-04-24T14:05:16.057Z,12.20
2023-04-24T14:07:44.400Z,12.00
2023-04-24T14:10:12.876Z,12.10
2023-04-24T14:12:43.152Z,12.40
2023-04-24T14:15:14.234Z,12.80
2023-04-24T14:17:42.760Z,13.00
2023-04-24T14:20:11.927Z,13.30
2023-04-24T14:22:40.354Z,14.00
2023-04-24T14:25:09.677Z,14.70
2023-04-24T14:27:37.981Z,15.20
2023-04-24T14:30:09.669Z,15.50
2023-04-24T14:32:38.057Z,15.50
2023-04-24T14:35:07.566Z,15.50
2023-04-24T14:37:36.779Z,15.40
2023-04-24T14:42:40.403Z,15.20
2023-04-24T14:45:11.692Z,14.80
2023-04-24T14:47:40.119Z,14.20
2023-04-24T14:50:10.201Z,13.70
2023-04-24T14:52:38.559Z,13.30
2023-04-24T14:55:07.916Z,13.10
2023-04-24T14:57:36.885Z,13.10
2023-04-24T15:00:07.123Z,13.10
2023-04-24T15:02:38.593Z,13.60
2023-04-24T15:05:08.685Z,13.70
2023-04-24T15:07:37.761Z,13.70
2023-04-24T15:10:06.906Z,14.10
2023-04-24T15:12:36.659Z,14.50
2023-04-24T15:15:05.396Z,15.00
2023-04-24T15:17:34.080Z,15.20
2023-04-24T15:20:04.625Z,15.40
2023-04-24T15:22:32.830Z,15.60
2023-04-24T15:25:02.127Z,15.40
2023-04-24T15:27:42.038Z,15.30
2023-04-24T15:30:11.757Z,15.20
2023-04-24T15:32:40.526Z,15.20
2023-04-24T15:35:11.139Z,15.40
2023-04-24T15:37:40.510Z,15.40
2023-04-24T15:40:11.404Z,15.50
2023-04-24T15:42:39.745Z,15.30
2023-04-24T15:45:09.175Z,15.10
2023-04-24T15:47:37.704Z,14.70
2023-04-24T15:50:09.203Z,14.30
2023-04-24T15:52:38.934Z,14.00
2023-04-24T15:55:08.161Z,13.70
2023-04-24T15:57:36.495Z,13.60
2023-04-24T16:00:07.029Z,13.40
2023-04-24T16:02:40.167Z,13.40
2023-04-24T16:05:09.558Z,13.20
2023-04-24T16:07:40.325Z,13.10
2023-04-24T16:10:09.685Z,13.10
2023-04-24T16:12:38.084Z,13.10
2023-04-24T16:15:07.685Z,13.10
2023-04-24T16:17:36.036Z,13.10
2023-04-24T16:20:05.162Z,13.30
2023-04-24T16:22:33.359Z,13.60
2023-04-24T16:25:03.139Z,13.60
2023-04-24T16:27:31.568Z,13.50
2023-04-24T16:30:00.586Z,13.40
2023-04-24T16:32:28.937Z,13.20
2023-04-24T16:34:57.296Z,13.10
2023-04-24T16:37:27.416Z,12.90
2023-04-24T16:39:56.103Z,12.80
2023-04-24T16:42:26.405Z,12.70
2023-04-24T16:44:54.707Z,12.60
2023-04-24T16:47:23.092Z,12.50
2023-04-24T16:49:51.590Z,12.50
2023-04-24T16:52:19.775Z,12.30
2023-04-24T16:54:48.427Z,12.20
2023-04-24T16:57:17.172Z,12.00
2023-04-24T16:59:47.527Z,11.90
2023-04-24T17:02:15.804Z,11.70
2023-04-24T17:04:44.277Z,11.70
2023-04-24T17:07:12.613Z,11.90
2023-04-24T17:09:41.133Z,12.10
2023-04-24T17:12:10.841Z,12.40
2023-04-24T17:14:39.186Z,12.60
2023-04-24T17:17:08.776Z,12.70
2023-04-24T17:19:37.707Z,12.70
2023-04-24T17:22:06.637Z,12.60
2023-04-24T17:24:35.162Z,12.60
2023-04-24T17:27:13.855Z,12.60
2023-04-24T17:29:43.400Z,12.60
2023-04-24T17:32:12.973Z,12.50
2023-04-24T17:34:41.452Z,12.50
2023-04-24T17:37:10.207Z,12.40
2023-04-24T17:39:38.747Z,12.30
2023-04-24T17:42:07.316Z,12.10
2023-04-24T17:44:35.815Z,11.90
2023-04-24T17:47:04.978Z,11.60
2023-04-24T17:49:34.760Z,11.50
2023-04-24T17:52:02.941Z,11.30
2023-04-24T17:54:31.352Z,11.20
2023-04-24T17:56:59.907Z,11.10
2023-04-24T17:59:28.188Z,11.00
2023-04-24T18:01:57.374Z,10.90
2023-04-24T18:04:26.838Z,10.80
2023-04-24T18:06:56.605Z,10.70
2023-04-24T18:09:24.967Z,10.60
2023-04-24T18:11:53.903Z,10.60
2023-04-24T18:14:23.174Z,10.50
2023-04-24T18:16:51.395Z,10.40
2023-04-24T18:19:19.731Z,10.40
2023-04-24T18:21:48.328Z,10.30
2023-04-24T18:24:18.929Z,10.20
2023-04-24T18:26:47.216Z,10.20
2023-04-24T18:29:15.535Z,10.20
2023-04-24T18:31:43.981Z,10.20
2023-04-24T18:34:12.377Z,10.20
2023-04-24T18:36:40.815Z,10.20
2023-04-24T18:39:09.188Z,10.20
2023-04-24T18:41:38.805Z,10.20
2023-04-24T18:44:07.221Z,10.20
2023-04-24T18:46:41.290Z,10.10
2023-04-24T18:49:09.801Z,10.10
2023-04-24T18:51:50.325Z,10.10
2023-04-24T18:54:22.029Z,10.10
2023-04-24T18:56:51.594Z,10.10
2023-04-24T18:59:20.131Z,10.10
2023-04-24T19:01:48.731Z,10.00
2023-04-24T19:04:18.008Z,10.00
2023-04-24T19:06:46.478Z,9.90
2023-04-24T19:09:14.857Z,9.90
2023-04-24T19:11:44.720Z,9.80
2023-04-24T19:14:16.050Z,9.70
2023-04-24T19:16:45.119Z,9.70
2023-04-24T19:19:18.652Z,9.70
2023-04-24T19:21:48.584Z,9.60
2023-04-24T19:24:18.907Z,9.50
2023-04-24T19:26:47.555Z,9.50
2023-04-24T19:29:17.247Z,9.50
2023-04-24T19:31:46.480Z,9.50
2023-04-24T19:34:14.816Z,9.50
2023-04-24T19:36:43.670Z,9.50
2023-04-24T19:39:12.226Z,9.50
2023-04-24T19:41:40.865Z,9.40
2023-04-24T19:44:10.354Z,9.40
2023-04-24T19:46:40.722Z,9.40
2023-04-24T19:49:09.111Z,9.30
2023-04-24T19:51:37.707Z,9.30
2023-04-24T19:54:06.601Z,9.30
2023-04-24T19:56:35.023Z,9.20
2023-04-24T19:59:03.796Z,9.20
2023-04-24T20:01:32.371Z,9.20
2023-04-24T20:04:03.841Z,9.20
2023-04-24T20:06:32.389Z,9.10
2023-04-24T20:09:01.015Z,9.10
2023-04-24T20:11:29.528Z,9.10
2023-04-24T20:13:57.946Z,9.10
2023-04-24T20:16:26.577Z,9.00
2023-04-24T20:18:55.762Z,9.00
2023-04-24T20:21:25.712Z,9.00
2023-04-24T20:23:54.407Z,9.00
2023-04-24T20:26:23.462Z,9.00
2023-04-24T20:28:52.149Z,9.00
2023-04-24T20:31:22.168Z,9.00
2023-04-24T20:33:51.972Z,8.90
2023-04-24T20:36:20.741Z,8.90
2023-04-24T20:38:51.679Z,8.90
2023-04-24T20:41:19.984Z,8.90
2023-04-24T20:43:48.832Z,8.90
2023-04-24T20:46:17.163Z,8.90
2023-04-24T20:48:45.883Z,8.90
2023-04-24T20:51:14.184Z,8.90
2023-04-24T20:53:42.611Z,8.90
2023-04-24T20:56:19.174Z,8.90
2023-04-24T20:58:48.285Z,8.90
2023-04-24T21:01:17.214Z,8.90
2023-04-24T21:03:46.745Z,8.80
2023-04-24T21:06:16.029Z,8.80
2023-04-24T21:08:44.571Z,8.80
2023-04-24T21:11:14.211Z,8.80
2023-04-24T21:13:43.275Z,8.80
2023-04-24T21:16:12.028Z,8.80
2023-04-24T21:18:41.334Z,8.80
2023-04-24T21:21:09.873Z,8.70
2023-04-24T21:23:39.038Z,8.70
2023-04-24T21:26:08.289Z,8.70
2023-04-24T21:28:38.405Z,8.70
2023-04-24T21:31:06.917Z,8.70
2023-04-24T21:33:35.467Z,8.60
2023-04-24T21:36:03.732Z,8.70
2023-04-24T21:38:32.198Z,8.60
2023-04-24T21:41:02.047Z,8.60
2023-04-24T21:43:37.456Z,8.60
2023-04-24T21:46:14.311Z,8.60
2023-04-24T21:48:42.829Z,8.60
2023-04-24T21:51:11.301Z,8.60
2023-04-24T21:53:39.553Z,8.60
2023-04-24T21:56:08.066Z,8.60
2023-04-24T21:58:36.906Z,8.60
2023-04-24T22:01:05.243Z,8.60
2023-04-24T22:03:35.094Z,8.60
2023-04-24T22:06:03.438Z,8.60
2023-04-24T22:08:31.696Z,8.60
2023-04-24T22:11:01.123Z,8.70
2023-04-24T22:13:29.412Z,8.60
2023-04-24T22:15:57.916Z,8.60
2023-04-24T22:18:30.696Z,8.60
2023-04-24T22:21:03.284Z,8.60
2023-04-24T22:23:31.522Z,8.60
2023-04-24T22:25:59.907Z,8.60
2023-04-24T22:28:28.427Z,8.60
2023-04-24T22:30:56.756Z,8.50
2023-04-24T22:33:24.984Z,8.50
2023-04-24T22:35:53.306Z,8.50
2023-04-24T22:38:22.830Z,8.40
2023-04-24T22:40:51.173Z,8.40
2023-04-24T22:43:19.418Z,8.40
2023-04-24T22:45:47.700Z,8.40
2023-04-24T22:48:16.291Z,8.30
2023-04-24T22:50:44.704Z,8.30
2023-04-24T22:53:12.920Z,8.40
2023-04-24T22:55:42.679Z,8.40
2023-04-24T22:58:10.933Z,8.40
2023-04-24T23:00:39.352Z,8.40
2023-04-24T23:03:07.811Z,8.40
2023-04-24T23:05:37.484Z,8.30
2023-04-24T23:08:06.173Z,8.30
2023-04-24T23:10:34.565Z,8.30
2023-04-24T23:13:04.075Z,8.30
2023-04-24T23:15:32.630Z,8.30
2023-04-24T23:18:00.841Z,8.30
2023-04-24T23:20:29.271Z,8.30
2023-04-24T23:22:57.541Z,8.30
2023-04-24T23:25:26.274Z,8.30
2023-04-24T23:27:54.464Z,8.30
2023-04-24T23:30:24.289Z,8.30
2023-04-24T23:32:52.524Z,8.30
2023-04-24T23:35:20.900Z,8.30
2023-04-24T23:37:49.121Z,8.30
2023-04-24T23:40:17.552Z,8.30
2023-04-24T23:42:51.535Z,8.30
2023-04-24T23:45:26.757Z,8.20
2023-04-24T23:47:55.023Z,8.20
2023-04-24T23:50:23.485Z,8.20
2023-04-24T23:52:51.682Z,8.20
2023-04-24T23:55:20.353Z,8.20
2023-04-24T23:57:48.585Z,8.20
